Terminal Aerodrome Forecast
Issued by NWS Memphis, TN

Home | Current Version | Previous Version | Text Only | Print | Product List | Glossary On
Versions: 1 2 3 4 5 6 7 8 9 10 11 12 13 14 15 16 17 18
326
FTUS44 KMEG 291130
TAFJBR
TAF
KJBR 291130Z 2912/3012 18012KT P6SM BKN025 BKN250
     FM291300 18015G20KT P6SM VCTS OVC025CB
     FM291700 18018G26KT P6SM SCT030 BKN060 BKN250
     FM291900 19020G30KT P6SM SCT030 BKN060 BKN250
     FM292300 17017G24KT P6SM VCTS BKN050CB BKN120
      TEMPO 3000/3003 1SM +TSRA OVC015CB
     FM300300 18017G24KT P6SM VCTS BKN035CB BKN060 OVC250
      WS020/21060KT
      TEMPO 3007/3010 1SM +TSRA OVC015CB
     FM301000 18017G24KT 2SM TSRA OVC008CB WS020/21060KT=

USA.gov is the U.S. government's official web portal to all federal, state and local government web resources and services.